Resurrection — WDE5499 — position and weather

sailwx.info

Track history (hours):
 
Tides and Currents Weather Stations Pressure Air Temp Water Temp Dewpoint Dewpoint Depression Visibility Wind Speed Wind Dir Waves Ship Positions

Resurrection

Owner: Marquette Transportation Company Gulf-Inland, LLC, Jefferson, LA. More information available from US FCC via Universal Licensing System and Coast Guard Vessel Documentation Center.

Last reported at 2018-Feb-19 00:09 UTC. Time now 2018-Feb-19 08:11 UTC.
Position N 28°46' W 095°40'.

Length 114 m; draft 2.8 m.

Type: . MMSI: 367367620.

Date/timePositionNaut miles runAvg speedWind from/ knotsBaromVisibWave heightAir tempDewpointWater temp
2018-Feb-19 00:09N 28°46' W 095°40'28 3.8
2018-Feb-18 16:49N 29°02' W 095°14'2 2.4
2018-Feb-18 15:52N 29°04' W 095°13'0 0.0
2018-Feb-18 15:20N 29°04' W 095°13'13 1.4
2018-Feb-18 05:52N 29°13' W 095°02'5 4.6
2018-Feb-18 04:50N 29°17' W 094°59'5 1.2
2018-Feb-18 00:42N 29°18' W 094°53'7 6.0
2018-Feb-17 23:37N 29°23' W 094°49'2 6.6
2018-Feb-17 23:19N 29°25' W 094°50'2 7.2
2018-Feb-17 23:00N 29°27' W 094°51'4 7.7
2018-Feb-17 22:30N 29°30' W 094°53'4 8.0
2018-Feb-17 22:00N 29°34' W 094°55'4 8.3
2018-Feb-17 21:30N 29°37' W 094°58'4 8.9
2018-Feb-17 21:00N 29°42' W 094°59'7 5.1
2018-Feb-17 19:38N 29°47' W 095°05'1 6.2
2018-Feb-17 19:30N 29°46' W 095°05'1 0.6
2018-Feb-17 18:00N 29°45' W 095°06'2 3.7
2018-Feb-17 17:22N 29°47' W 095°04'0 0.0
2018-Feb-16 18:02N 29°47' W 095°04'0 0.1
2018-Feb-16 17:59N 29°47' W 095°04'0 0.0
2018-Feb-16 17:14N 29°47' W 095°04'0 0.0
2018-Feb-16 16:11N 29°47' W 095°04'0 1.0
2018-Feb-16 15:57N 29°47' W 095°04'0 0.0
2018-Feb-16 15:30N 29°47' W 095°04'0 0.2
2018-Feb-16 14:24N 29°47' W 095°04'2 2.1
2018-Feb-16 13:36N 29°46' W 095°05'0 4.5
2018-Feb-16 13:30N 29°46' W 095°05'1 0.2
2018-Feb-16 07:31N 29°45' W 095°06'0 6.2
2018-Feb-16 07:29N 29°45' W 095°06'1 0.7
2018-Feb-16 06:08N 29°46' W 095°05'1 2.2
2018-Feb-16 05:54N 29°46' W 095°04'0 1.1
2018-Feb-16 05:28N 29°45' W 095°04'3 1.2
2018-Feb-16 03:10N 29°44' W 095°01'1 6.4
2018-Feb-16 02:57N 29°44' W 095°03'3 6.7
2018-Feb-16 02:30N 29°47' W 095°05'1 1.4
2018-Feb-16 01:54N 29°48' W 095°04'1 0.1
2018-Feb-15 10:27N 29°47' W 095°05'0 1.0
2018-Feb-15 10:00N 29°47' W 095°04'0 0.0
2018-Feb-15 09:08N 29°47' W 095°04'2 0.2
2018-Feb-14 21:51N 29°45' W 095°06'0 0.1
2018-Feb-14 18:39N 29°46' W 095°06'1 1.8
2018-Feb-14 18:23N 29°45' W 095°06'0 0.8
2018-Feb-14 17:49N 29°46' W 095°06'0 0.1
2018-Feb-14 17:18N 29°46' W 095°06'2 0.0
2018-Feb-13 00:10N 29°45' W 095°04'1 6.2
2018-Feb-12 23:59N 29°44' W 095°03'2 3.1
2018-Feb-12 23:21N 29°43' W 095°01'2 4.5
2018-Feb-12 23:00N 29°42' W 094°60'3 6.2
2018-Feb-12 22:30N 29°39' W 094°58'4 7.1
2018-Feb-12 21:59N 29°36' W 094°57'4 7.5
2018-Feb-12 21:30N 29°33' W 094°54'  
2018-Feb-10 13:54N 29°32' W 094°29'1 1.8
2018-Feb-10 13:28N 29°32' W 094°29'0 0.1
2018-Feb-10 13:00N 29°32' W 094°29'0 0.0
2018-Feb-10 12:30N 29°32' W 094°29'0 0.0
2018-Feb-10 11:52N 29°32' W 094°29'0 0.0
2018-Feb-10 10:38N 29°32' W 094°29'0 0.0
2018-Feb-10 10:20N 29°32' W 094°29'0 0.0
2018-Feb-10 09:53N 29°32' W 094°29'0 0.0
2018-Feb-10 09:30N 29°32' W 094°29'0 0.0
2018-Feb-10 09:00N 29°32' W 094°29'0 0.0
2018-Feb-10 08:30N 29°32' W 094°29'0 0.0
2018-Feb-10 06:22N 29°32' W 094°29'0 0.0
2018-Feb-10 04:44N 29°32' W 094°29'0 0.0
2018-Feb-10 04:28N 29°32' W 094°29'4 0.9
2018-Feb-09 23:54N 29°34' W 094°25'1 2.7
2018-Feb-09 23:22N 29°36' W 094°25'2 3.8
2018-Feb-09 22:45N 29°36' W 094°22'25 4.4
2018-Feb-09 17:01N 29°50' W 093°57'12 2.4
2018-Feb-09 12:01N 30°01' W 094°02'0 0.0
2018-Feb-09 03:31N 30°01' W 094°02'  
Track history (hours):
 
Tides and Currents Weather Stations Pressure Air Temp Water Temp Dewpoint Dewpoint Depression Visibility Wind Speed Wind Dir Waves Ship Positions

Resurrection

Owner: Marquette Transportation Company Gulf-Inland, LLC, Jefferson, LA. More information available from US FCC via Universal Licensing System and Coast Guard Vessel Documentation Center.

Last reported at 2018-Feb-19 00:09 UTC. Time now 2018-Feb-19 08:11 UTC.
Position N 28°46' W 095°40'.

Length 114 m; draft 2.8 m.

Type: . MMSI: 367367620.

Date/timePositionNaut miles runAvg speedWind from/ knotsBaromVisibWave heightAir tempDewpointWater temp
2018-Feb-19 00:09N 28°46' W 095°40'28 3.8
2018-Feb-18 16:49N 29°02' W 095°14'2 2.4
2018-Feb-18 15:52N 29°04' W 095°13'0 0.0
2018-Feb-18 15:20N 29°04' W 095°13'13 1.4
2018-Feb-18 05:52N 29°13' W 095°02'5 4.6
2018-Feb-18 04:50N 29°17' W 094°59'5 1.2
2018-Feb-18 00:42N 29°18' W 094°53'7 6.0
2018-Feb-17 23:37N 29°23' W 094°49'2 6.6
2018-Feb-17 23:19N 29°25' W 094°50'2 7.2
2018-Feb-17 23:00N 29°27' W 094°51'4 7.7
2018-Feb-17 22:30N 29°30' W 094°53'4 8.0
2018-Feb-17 22:00N 29°34' W 094°55'4 8.3
2018-Feb-17 21:30N 29°37' W 094°58'4 8.9
2018-Feb-17 21:00N 29°42' W 094°59'7 5.1
2018-Feb-17 19:38N 29°47' W 095°05'1 6.2
2018-Feb-17 19:30N 29°46' W 095°05'1 0.6
2018-Feb-17 18:00N 29°45' W 095°06'2 3.7
2018-Feb-17 17:22N 29°47' W 095°04'0 0.0
2018-Feb-16 18:02N 29°47' W 095°04'0 0.1
2018-Feb-16 17:59N 29°47' W 095°04'0 0.0
2018-Feb-16 17:14N 29°47' W 095°04'0 0.0
2018-Feb-16 16:11N 29°47' W 095°04'0 1.0
2018-Feb-16 15:57N 29°47' W 095°04'0 0.0
2018-Feb-16 15:30N 29°47' W 095°04'0 0.2
2018-Feb-16 14:24N 29°47' W 095°04'2 2.1
2018-Feb-16 13:36N 29°46' W 095°05'0 4.5
2018-Feb-16 13:30N 29°46' W 095°05'1 0.2
2018-Feb-16 07:31N 29°45' W 095°06'0 6.2
2018-Feb-16 07:29N 29°45' W 095°06'1 0.7
2018-Feb-16 06:08N 29°46' W 095°05'1 2.2
2018-Feb-16 05:54N 29°46' W 095°04'0 1.1
2018-Feb-16 05:28N 29°45' W 095°04'3 1.2
2018-Feb-16 03:10N 29°44' W 095°01'1 6.4
2018-Feb-16 02:57N 29°44' W 095°03'3 6.7
2018-Feb-16 02:30N 29°47' W 095°05'1 1.4
2018-Feb-16 01:54N 29°48' W 095°04'1 0.1
2018-Feb-15 10:27N 29°47' W 095°05'0 1.0
2018-Feb-15 10:00N 29°47' W 095°04'0 0.0
2018-Feb-15 09:08N 29°47' W 095°04'2 0.2
2018-Feb-14 21:51N 29°45' W 095°06'0 0.1
2018-Feb-14 18:39N 29°46' W 095°06'1 1.8
2018-Feb-14 18:23N 29°45' W 095°06'0 0.8
2018-Feb-14 17:49N 29°46' W 095°06'0 0.1
2018-Feb-14 17:18N 29°46' W 095°06'2 0.0
2018-Feb-13 00:10N 29°45' W 095°04'1 6.2
2018-Feb-12 23:59N 29°44' W 095°03'2 3.1
2018-Feb-12 23:21N 29°43' W 095°01'2 4.5
2018-Feb-12 23:00N 29°42' W 094°60'3 6.2
2018-Feb-12 22:30N 29°39' W 094°58'4 7.1
2018-Feb-12 21:59N 29°36' W 094°57'4 7.5
2018-Feb-12 21:30N 29°33' W 094°54'  
2018-Feb-10 13:54N 29°32' W 094°29'1 1.8
2018-Feb-10 13:28N 29°32' W 094°29'0 0.1
2018-Feb-10 13:00N 29°32' W 094°29'0 0.0
2018-Feb-10 12:30N 29°32' W 094°29'0 0.0
2018-Feb-10 11:52N 29°32' W 094°29'0 0.0
2018-Feb-10 10:38N 29°32' W 094°29'0 0.0
2018-Feb-10 10:20N 29°32' W 094°29'0 0.0
2018-Feb-10 09:53N 29°32' W 094°29'0 0.0
2018-Feb-10 09:30N 29°32' W 094°29'0 0.0
2018-Feb-10 09:00N 29°32' W 094°29'0 0.0
2018-Feb-10 08:30N 29°32' W 094°29'0 0.0
2018-Feb-10 06:22N 29°32' W 094°29'0 0.0
2018-Feb-10 04:44N 29°32' W 094°29'0 0.0
2018-Feb-10 04:28N 29°32' W 094°29'4 0.9
2018-Feb-09 23:54N 29°34' W 094°25'1 2.7
2018-Feb-09 23:22N 29°36' W 094°25'2 3.8
2018-Feb-09 22:45N 29°36' W 094°22'25 4.4
2018-Feb-09 17:01N 29°50' W 093°57'12 2.4
2018-Feb-09 12:01N 30°01' W 094°02'0 0.0
2018-Feb-09 03:31N 30°01' W 094°02'  

Dump ship's entire track history